Πλησιέστερες Αναφορές METAR

 

LGTS - Thessaloniki/Makedonia-Elev 7m
Απόσταση από σταθμό: Ν 13km
Ενημερώθηκε: 10/12/2018 05:20
Διάσπαρτα Νέφη
Διάσπαρτα Νέφη
 Ανεμοι από μεταβλητός
Ανεμος: μεταβλητός 6 km/h
Θερμοκρασία: 5°C
Σημείο Δρόσου: 2°C
Υγρασία: 81%
Βαρόμετρο: 1005 hPa
Νέφωση: Διάσπαρτα Νέφη
Ορατότητα: 10 km
Λεπτομέρειες Νεφών: Διάσπαρτα Νέφη 762 m
2018/12/10 03:20 LGTS 100320Z VRB03KT 9999 FEW025 05/02 Q1005 NOSIG
LGAV - Athens/Elef. Venizelos-Elev 94m
Απόσταση από σταθμό: ΝΝΑ 312km
Ενημερώθηκε: 10/12/2018 05:20
Διάσπαρτα Νέφη
Διάσπαρτα Νέφη
 Ανεμοι από ΝΝΔ
Ανεμος: ΝΝΔ 15 km/h
Θερμοκρασία: 12°C
Σημείο Δρόσου: 4°C
Υγρασία: 58%
Βαρόμετρο: 1007 hPa
Νέφωση: Διάσπαρτα Νέφη
Ορατότητα: 10 km
Λεπτομέρειες Νεφών: Διάσπαρτα Νέφη 1067 m
2018/12/10 03:20 LGAV 100320Z 21008KT 9999 FEW035 12/04 Q1007 NOSIG
 
LGAL - Alexandroupolis-Elev 3m
Απόσταση από σταθμό: Α 251km
Ενημερώθηκε: 10/12/2018 05:20
Μερικώς νεφελώδης
Μερικώς νεφελώδης
 Ανεμοι από άπνοια
Ανεμος: άπνοια
Θερμοκρασία: 4°C
Σημείο Δρόσου: 3°C
Υγρασία: 93%
Βαρόμετρο: 1005 hPa
Νέφωση: Μερικώς νεφελώδης
Ορατότητα: 7 km
Λεπτομέρειες Νεφών: Μερικώς νεφελώδης 610 m
2018/12/10 03:20 LGAL 100320Z 00000KT 7000 SCT020 04/03 Q1005
LGKV - Kavala/Crysoupolis-Elev 5m
Απόσταση από σταθμό: ΑΒΑ 144km
Ενημερώθηκε: 09/12/2018 20:50
ΜΗ Ενημερωμένο METAR!
Διάσπαρτα Νέφη
Διάσπαρτα Νέφη
 Ανεμοι από ΒΒΑ
Ανεμος: ΒΒΑ 7 km/h
Θερμοκρασία: 7°C
Δείκτης Ψύχρας: 6°C
Σημείο Δρόσου: 5°C
Υγρασία: 87%
Βαρόμετρο: 1007 hPa
Νέφωση: Διάσπαρτα Νέφη
Ορατότητα: 10 km
Λεπτομέρειες Νεφών: Διάσπαρτα Νέφη 762 m
2018/12/09 18:50 LGKV 091850Z 03004KT 9999 FEW025 07/05 Q1007
 
LGSK - Skiathos Island-Elev 15m
Απόσταση από σταθμό: ΝΝΑ 168km
Ενημερώθηκε: 09/12/2018 19:50
ΜΗ Ενημερωμένο METAR!
Διάσπαρτα Νέφη
Διάσπαρτα Νέφη
 Ανεμοι από άπνοια
Ανεμος: άπνοια
Θερμοκρασία: 10°C
Σημείο Δρόσου: 8°C
Υγρασία: 88%
Βαρόμετρο: 1009 hPa
Νέφωση: Διάσπαρτα Νέφη
Ορατότητα: 10 km
Λεπτομέρειες Νεφών: Διάσπαρτα Νέφη 610 m
2018/12/09 17:50 LGSK 091750Z 00000KT 9999 FEW020 10/08 Q1009
LGLM - Limnos Island-Elev 5m
Απόσταση από σταθμό: ΑΝΑ 210km
Ενημερώθηκε: 10/12/2018 05:20
Μερικώς νεφελώδης
Μερικώς νεφελώδης
 Ανεμοι από Β
Ανεμος: Β 4 km/h
Θερμοκρασία: 6°C
Σημείο Δρόσου: 6°C
Υγρασία: 100%
Βαρόμετρο: 1005 hPa
Νέφωση: Μερικώς νεφελώδης
Ορατότητα: 10 km
Λεπτομέρειες Νεφών: Διάσπαρτα Νέφη 305 m
Μερικώς νεφελώδης 762 m
2018/12/10 03:20 LGLM 100320Z 35002KT 9999 FEW010 SCT025 06/06 Q1005
 
LGMT - Mitilini Island-Elev 17m
Απόσταση από σταθμό: ΑΝΑ 358km
Ενημερώθηκε: 09/12/2018 21:50
ΜΗ Ενημερωμένο METAR!
Μερικώς νεφελώδης
Μερικώς νεφελώδης
 Ανεμοι από μεταβλητός
Ανεμος: μεταβλητός 4 km/h
Θερμοκρασία: 13°C
Σημείο Δρόσου: 9°C
Υγρασία: 77%
Βαρόμετρο: 1009 hPa
Νέφωση: Μερικώς νεφελώδης
Ορατότητα: 10 km
Λεπτομέρειες Νεφών: Μερικώς νεφελώδης 610 m
2018/12/09 19:50 LGMT 091950Z VRB02KT 9999 SCT020 13/09 Q1009
LGSY - Skiros Island-Elev 15m
Απόσταση από σταθμό: ΝΑ 227km
Ενημερώθηκε: 10/12/2018 04:50
Διάσπαρτα Νέφη
Διάσπαρτα Νέφη
 Ανεμοι από ΝΝΔ
Ανεμος: ΝΝΔ 9 km/h
Θερμοκρασία: 10°C
Δείκτης Ψύχρας: 9°C
Σημείο Δρόσου: 6°C
Υγρασία: 76%
Βαρόμετρο: 1005 hPa
Νέφωση: Διάσπαρτα Νέφη
Ορατότητα: 10 km
Λεπτομέρειες Νεφών: Διάσπαρτα Νέφη 610 m
2018/12/10 02:50 LGSY 100250Z 21005KT 9999 FEW020 10/06 Q1005 RMK FEW080 SCT180 BLU
 
LGKZ - Kozani-Elev 628m
Απόσταση από σταθμό: ΔΝΔ 102km
Ενημερώθηκε: 09/12/2018 13:50
ΜΗ Ενημερωμένο METAR!
Σχεδόν νεφελώδης
Σχεδόν νεφελώδης
 Ανεμοι από άπνοια
Ανεμος: άπνοια
Θερμοκρασία: 9°C
Σημείο Δρόσου: 1°C
Υγρασία: 58%
Βαρόμετρο: 1010 hPa
Νέφωση: Σχεδόν νεφελώδης
Ορατότητα: 10 km
Λεπτομέρειες Νεφών: Διάσπαρτα Νέφη 762 m
Σχεδόν νεφελώδης 2134 m
2018/12/09 11:50 LGKZ 091150Z 00000KT 9999 FEW025 BKN070 09/01 Q1010
LGIO - Ioannina-Elev 476m
Απόσταση από σταθμό: ΔΝΔ 209km
Ενημερώθηκε: 09/12/2018 21:20
ΜΗ Ενημερωμένο METAR!
Μερικώς νεφελώδης
Μερικώς νεφελώδης
 Ανεμοι από μεταβλητός
Ανεμος: μεταβλητός 0 km/h
Θερμοκρασία: 8°C
Σημείο Δρόσου: 7°C
Υγρασία: 93%
Βαρόμετρο: 1011 hPa
Νέφωση: Μερικώς νεφελώδης
Ορατότητα: 10 km
Λεπτομέρειες Νεφών: Διάσπαρτα Νέφη 610 m
Μερικώς νεφελώδης 1067 m
2018/12/09 19:20 LGIO 091920Z /////KT 9999 FEW020 SCT035 08/07 Q1011
 
LGZA - Zakinthos-Elev 3m
Απόσταση από σταθμό: ΝΝΔ 367km
Ενημερώθηκε: 09/12/2018 19:50
ΜΗ Ενημερωμένο METAR!
Μερικώς νεφελώδης
Μερικώς νεφελώδης
 Ανεμοι από άπνοια
Ανεμος: άπνοια
Θερμοκρασία: 9°C
Σημείο Δρόσου: 6°C
Υγρασία: 82%
Βαρόμετρο: 1014 hPa
Νέφωση: Μερικώς νεφελώδης
Ορατότητα: 10 km
Λεπτομέρειες Νεφών: Μερικώς νεφελώδης 610 m
2018/12/09 17:50 LGZA 091750Z 00000KT 9999 SCT020 09/06 Q1014
LGKR - Corfu Island-Elev 2m
Απόσταση από σταθμό: ΔΝΔ 282km
Ενημερώθηκε: 10/12/2018 05:20
Σχεδόν νεφελώδης
Σχεδόν νεφελώδης
 Ανεμοι από άπνοια
Ανεμος: άπνοια
Θερμοκρασία: 11°C
Σημείο Δρόσου: 11°C
Υγρασία: 100%
Βαρόμετρο: 1005 hPa
Νέφωση: Σχεδόν νεφελώδης
Ορατότητα: 10 km
Λεπτομέρειες Νεφών: Διάσπαρτα Νέφη 183 m
Μερικώς νεφελώδης 549 m
Σχεδόν νεφελώδης 2134 m
2018/12/10 03:20 LGKR 100320Z 00000KT 9999 FEW006 SCT018 BKN070 11/11 Q1005 RETS NOSIG
 
LGSO - Syros Island-Elev 72m
Απόσταση από σταθμό: ΝΝΑ 397km
Ενημερώθηκε: 10/12/2018 05:20

 Ανεμοι από ΔΝΔ
Ανεμος: ΔΝΔ 20 km/h
Θερμοκρασία: 14°C
Σημείο Δρόσου: 7°C
Υγρασία: 63%
Βαρόμετρο: 1007 hPa
2018/12/10 03:20 LGSO 100320Z AUTO 25011KT //// // ////// 14/07 Q1007 RE//
LGMK - Mikonos Island-Elev 123m
Απόσταση από σταθμό: ΝΝΑ 412km
Ενημερώθηκε: 09/12/2018 19:50
ΜΗ Ενημερωμένο METAR!
Διάσπαρτα Νέφη
Διάσπαρτα Νέφη
 Ανεμοι από Δ
Ανεμος: Δ 2 km/h
Θερμοκρασία: 13°C
Σημείο Δρόσου: 7°C
Υγρασία: 67%
Βαρόμετρο: 1010 hPa
Νέφωση: Διάσπαρτα Νέφη
Ορατότητα: 10 km
Λεπτομέρειες Νεφών: Διάσπαρτα Νέφη 610 m
2018/12/09 17:50 LGMK 091750Z 27001KT 9999 FEW020 13/07 Q1010
 
LGSR - Santorini Island-Elev 40m
Απόσταση από σταθμό: ΝΝΑ 520km
Ενημερώθηκε: 10/12/2018 05:20
Ασθενής βροχή
Ασθενής βροχή
 Ανεμοι από Β
Ανεμος: Β 24 km/h
Θερμοκρασία: 15°C
Σημείο Δρόσου: 8°C
Υγρασία: 63%
Βαρόμετρο: 1009 hPa
Περίληψη: Ασθενής βροχή
2018/12/10 03:20 LGSR 100320Z AUTO 36013KT //// -RA ////// 15/08 Q1009 RE//
LGKL - Kalamata-Elev 8m
Απόσταση από σταθμό: Ν 405km
Ενημερώθηκε: 10/12/2018 05:20

 Ανεμοι από άπνοια
Ανεμος: άπνοια
Θερμοκρασία: 10°C
Σημείο Δρόσου: 9°C
Υγρασία: 94%
Βαρόμετρο: 1009 hPa
2018/12/10 03:20 LGKL 100320Z AUTO 00000KT //// // ////// 10/09 Q1009 RE//
 
LGIR - Iraklion/Crete-Elev 5m
Απόσταση από σταθμό: ΝΝΑ 622km
Ενημερώθηκε: 10/12/2018 05:20
Διάσπαρτα Νέφη
Διάσπαρτα Νέφη
 Ανεμοι από ΝΝΑ
Ανεμος: ΝΝΑ 17 km/h
Θερμοκρασία: 12°C
Σημείο Δρόσου: 8°C
Υγρασία: 77%
Βαρόμετρο: 1011 hPa
Νέφωση: Διάσπαρτα Νέφη
Ορατότητα: 10 km
Λεπτομέρειες Νεφών: Διάσπαρτα Νέφη 610 m
2018/12/10 03:20 LGIR 100320Z 16009KT 9999 FEW020 12/08 Q1011 NOSIG
LGRP - Rhodes-Elev 5m
Απόσταση από σταθμό: ΝΑ 649km
Ενημερώθηκε: 10/12/2018 05:20
Μερικώς νεφελώδης
Μερικώς νεφελώδης
 Ανεμοι από ΝΔ
Ανεμος: ΝΔ 19 km/h
Θερμοκρασία: 15°C
Σημείο Δρόσου: 11°C
Υγρασία: 77%
Βαρόμετρο: 1010 hPa
Νέφωση: Μερικώς νεφελώδης
Ορατότητα: 10 km
Λεπτομέρειες Νεφών: Διάσπαρτα Νέφη 549 m
Μερικώς νεφελώδης 762 m
2018/12/10 03:20 LGRP 100320Z 23010KT 9999 FEW018 SCT025 15/11 Q1010 NOSIG
 
LWOH - Ohrid/FYROM-Elev 761m
Απόσταση από σταθμό: ΔΒΔ 188km
Ενημερώθηκε: 09/12/2018 13:00
ΜΗ Ενημερωμένο METAR!
Σχεδόν νεφελώδης
Σχεδόν νεφελώδης
 Ανεμοι από Ν
Ανεμος: Ν 4 km/h
Θερμοκρασία: 8°C
Σημείο Δρόσου: 3°C
Υγρασία: 71%
Βαρόμετρο: 1011 hPa
Νέφωση: Σχεδόν νεφελώδης
Ορατότητα: 10 km
Λεπτομέρειες Νεφών: Διάσπαρτα Νέφη 762 m
Σχεδόν νεφελώδης 1372 m
2018/12/09 11:00 LWOH 091100Z 18002KT 9999 FEW025 BKN045 08/03 Q1011
LBSF - Sofia/Bulgaria-Elev 595m
Απόσταση από σταθμό: Β 227km
Ενημερώθηκε: 10/12/2018 05:30
Αχλύς, Συννεφιά
Αχλύς, Συννεφιά
 Ανεμοι από ΝΔ
Ανεμος: ΝΔ 7 km/h
Θερμοκρασία: 0°C
Δείκτης Ψύχρας: -3°C
Σημείο Δρόσου: 0°C
Υγρασία: 100%
Βαρόμετρο: 1006 hPa
Περίληψη: Αχλύς
Νέφωση: Συννεφιά
Ορατότητα: 5 km
Λεπτομέρειες Νεφών: Συννεφιά 122 m
2018/12/10 03:30 LBSF 100330Z 22004KT 5000 BR OVC004 00/M00 Q1006 R99/19//95 NOSIG